Time;durP1;ratioP1;P1;durP2;ratioP2;P2;SDS_P1;SDS_P2;PMS_P1;PMS_P2;Temp;Humidity;BMP_temperature;BMP_pressure;BME280_temperature;BME280_humidity;BME280_pressure;Samples;Min_cycle;Max_cycle;Signal;HPM_P1;HPM_P2
2022/03/10 00:01:28;;;;;;;16.58;11.85;;;10.60;65.00;;;;;;5030461;28;20026;-72
2022/03/10 00:03:54;;;;;;;18.40;12.13;;;10.60;65.00;;;;;;5029567;28;20402;-73
2022/03/10 00:06:19;;;;;;;14.65;10.80;;;10.60;64.90;;;;;;5029195;28;20030;-72
2022/03/10 00:08:45;;;;;;;15.88;10.68;;;10.60;64.90;;;;;;5030735;28;20025;-74
2022/03/10 00:11:10;;;;;;;14.32;11.00;;;10.60;64.90;;;;;;5028656;28;20021;-73
2022/03/10 00:13:36;;;;;;;16.55;10.82;;;10.60;64.90;;;;;;5030889;28;20426;-73
2022/03/10 00:16:01;;;;;;;16.63;11.43;;;10.60;65.00;;;;;;5028322;28;20027;-75
2022/03/10 00:18:27;;;;;;;14.80;10.95;;;10.60;65.00;;;;;;5030553;28;20129;-73
2022/03/10 00:20:53;;;;;;;24.08;11.27;;;10.60;65.00;;;;;;5030311;28;20030;-72
2022/03/10 00:23:19;;;;;;;14.35;10.65;;;10.60;65.10;;;;;;5030660;28;20036;-73
2022/03/10 00:25:44;;;;;;;21.55;11.00;;;10.50;65.00;;;;;;5028676;28;20529;-72
2022/03/10 00:28:10;;;;;;;32.53;11.98;;;10.60;65.10;;;;;;5030646;28;20025;-74
2022/03/10 00:30:35;;;;;;;21.20;11.00;;;10.60;65.20;;;;;;5029612;28;20350;-73
2022/03/10 00:33:01;;;;;;;17.48;10.43;;;10.60;65.20;;;;;;5028989;28;20502;-73
2022/03/10 00:35:27;;;;;;;15.55;10.32;;;10.60;65.20;;;;;;5028765;28;20501;-73
2022/03/10 00:37:53;;;;;;;15.93;10.50;;;10.60;65.20;;;;;;5028555;28;20025;-76
2022/03/10 00:40:19;;;;;;;17.80;10.90;;;10.60;65.20;;;;;;5029631;28;20033;-74
2022/03/10 00:42:45;;;;;;;20.98;10.45;;;10.60;65.20;;;;;;5029956;28;20057;-74
2022/03/10 00:45:12;;;;;;;16.52;10.63;;;10.60;65.20;;;;;;5029907;28;20071;-73
2022/03/10 00:47:39;;;;;;;19.52;10.63;;;10.60;65.20;;;;;;5029396;28;20044;-72
2022/03/10 00:50:07;;;;;;;16.17;10.25;;;10.60;65.20;;;;;;5029584;28;20044;-73
2022/03/10 00:52:33;;;;;;;15.52;9.90;;;10.60;65.20;;;;;;5029887;28;20386;-72
2022/03/10 00:54:58;;;;;;;14.82;10.00;;;10.60;65.20;;;;;;5028139;28;20045;-76
2022/03/10 00:57:24;;;;;;;15.55;10.68;;;10.60;65.20;;;;;;5035424;28;20554;-74
2022/03/10 00:59:49;;;;;;;18.65;10.43;;;10.60;65.10;;;;;;5049478;28;20036;-72
2022/03/10 01:02:15;;;;;;;14.73;10.15;;;10.60;65.20;;;;;;5034594;28;20483;-73
2022/03/10 01:04:41;;;;;;;13.30;10.15;;;10.60;65.20;;;;;;5029390;28;20540;-73
2022/03/10 01:07:07;;;;;;;14.20;9.68;;;10.60;65.20;;;;;;5029152;28;20103;-73
2022/03/10 01:09:32;;;;;;;14.80;10.35;;;10.60;65.30;;;;;;5029207;28;20084;-76
2022/03/10 01:11:58;;;;;;;20.20;10.50;;;10.50;65.30;;;;;;5027703;28;20495;-72
2022/03/10 01:14:23;;;;;;;23.20;11.30;;;10.60;65.30;;;;;;5027699;28;20034;-73
2022/03/10 01:16:49;;;;;;;19.17;11.00;;;10.60;65.50;;;;;;5028560;28;20040;-72
2022/03/10 01:19:15;;;;;;;48.88;11.90;;;10.60;65.60;;;;;;5028623;28;20041;-72
2022/03/10 01:21:41;;;;;;;20.10;10.88;;;10.60;65.60;;;;;;5028681;28;20479;-72
2022/03/10 01:24:07;;;;;;;17.20;10.32;;;10.50;65.50;;;;;;5027491;28;20509;-73
2022/03/10 01:26:33;;;;;;;17.60;10.05;;;10.60;65.50;;;;;;5027484;28;20025;-72
2022/03/10 01:28:58;;;;;;;15.05;10.55;;;10.50;65.50;;;;;;5028425;28;20491;-72
2022/03/10 01:31:24;;;;;;;16.52;9.95;;;10.50;65.50;;;;;;5028576;28;20017;-74
2022/03/10 01:33:49;;;;;;;15.32;10.52;;;10.50;65.50;;;;;;5028538;28;20033;-72
2022/03/10 01:36:15;;;;;;;13.75;9.85;;;10.50;65.40;;;;;;5028937;28;20029;-75
2022/03/10 01:38:42;;;;;;;39.85;11.43;;;10.60;65.40;;;;;;5028549;28;20091;-72
2022/03/10 01:41:08;;;;;;;16.73;10.27;;;10.50;65.50;;;;;;5027192;28;20572;-73
2022/03/10 01:43:53;;;;;;;19.05;10.18;;;10.60;65.40;;;;;;5027601;28;20100;-76
2022/03/10 01:46:18;;;;;;;16.17;9.75;;;10.50;65.40;;;;;;5027299;28;20382;-76
2022/03/10 01:48:45;;;;;;;15.02;10.13;;;10.50;65.30;;;;;;5027237;28;20032;-73
2022/03/10 01:51:11;;;;;;;15.48;9.80;;;10.50;65.40;;;;;;5028233;28;20121;-74
2022/03/10 01:53:37;;;;;;;13.88;9.85;;;10.50;65.30;;;;;;5027533;28;20033;-73
2022/03/10 01:56:03;;;;;;;14.73;10.43;;;10.50;65.30;;;;;;5026797;28;20067;-78
2022/03/10 01:58:28;;;;;;;14.57;10.02;;;10.50;65.30;;;;;;5027197;28;20033;-73
2022/03/10 02:00:54;;;;;;;13.80;9.70;;;10.50;65.30;;;;;;5026647;28;20033;-76
2022/03/10 02:03:20;;;;;;;13.63;10.13;;;10.50;65.20;;;;;;5028218;28;20029;-73
2022/03/10 02:05:45;;;;;;;18.38;9.63;;;10.50;65.30;;;;;;5027099;28;20044;-77
2022/03/10 02:10:55;;;;;;;16.25;10.07;;;10.50;65.40;;;;;;5027559;28;20079;-72
2022/03/10 02:13:21;;;;;;;13.77;9.45;;;10.50;65.50;;;;;;5027948;28;20480;-73
2022/03/10 02:18:30;;;;;;;13.32;9.95;;;10.50;65.50;;;;;;5028637;28;20144;-73
2022/03/10 02:20:56;;;;;;;14.43;10.52;;;10.50;65.50;;;;;;5027517;28;20140;-73
2022/03/10 02:23:22;;;;;;;14.40;9.63;;;10.50;65.50;;;;;;5028054;28;20040;-74
2022/03/10 02:25:48;;;;;;;16.10;10.30;;;10.50;65.60;;;;;;5026421;28;20040;-74
2022/03/10 02:28:14;;;;;;;15.15;9.90;;;10.50;65.60;;;;;;5027797;28;20530;-73
2022/03/10 02:30:39;;;;;;;15.18;10.30;;;10.50;65.60;;;;;;5026204;28;20029;-75
2022/03/10 02:33:05;;;;;;;13.07;10.32;;;10.50;65.50;;;;;;5024766;28;20078;-73
2022/03/10 02:35:31;;;;;;;13.70;9.43;;;10.50;66.10;;;;;;5026358;28;20087;-74
2022/03/10 02:37:57;;;;;;;14.93;10.20;;;10.50;65.50;;;;;;5024248;28;20098;-74
2022/03/10 02:40:23;;;;;;;14.45;10.02;;;10.50;65.50;;;;;;5041211;28;20558;-73
2022/03/10 02:42:48;;;;;;;13.63;9.98;;;10.50;65.50;;;;;;5026410;28;20025;-73
2022/03/10 02:45:14;;;;;;;15.43;9.95;;;10.50;65.40;;;;;;5027665;28;20033;-73
2022/03/10 02:47:40;;;;;;;15.43;10.50;;;10.50;65.40;;;;;;5026453;28;20033;-74
2022/03/10 02:50:09;;;;;;;13.82;9.88;;;10.50;65.40;;;;;;5027334;28;20036;-73
2022/03/10 02:52:36;;;;;;;14.40;10.00;;;10.50;65.40;;;;;;5026308;28;20025;-72
2022/03/10 02:55:04;;;;;;;13.80;9.43;;;10.50;65.40;;;;;;5027343;28;20075;-73
2022/03/10 02:57:31;;;;;;;12.18;9.63;;;10.50;65.40;;;;;;5026464;28;20018;-74
2022/03/10 02:59:57;;;;;;;13.63;9.70;;;10.50;65.40;;;;;;5037527;28;20501;-72
2022/03/10 03:02:23;;;;;;;13.65;9.73;;;10.50;65.40;;;;;;5047620;28;20029;-73
2022/03/10 03:04:49;;;;;;;12.80;9.55;;;10.50;65.40;;;;;;5038492;28;20029;-73
2022/03/10 03:07:14;;;;;;;12.98;9.68;;;10.50;65.40;;;;;;5026499;28;20026;-73
2022/03/10 03:09:40;;;;;;;13.43;9.63;;;10.50;65.40;;;;;;5025618;28;20033;-73
2022/03/10 03:12:05;;;;;;;12.65;9.88;;;10.50;65.30;;;;;;5026996;28;20024;-73
2022/03/10 03:14:32;;;;;;;13.63;9.80;;;10.50;65.30;;;;;;5027463;28;20051;-72
2022/03/10 03:16:57;;;;;;;15.65;9.75;;;10.50;65.30;;;;;;5025688;28;20029;-73
2022/03/10 03:19:24;;;;;;;12.88;10.05;;;10.50;65.30;;;;;;5027009;28;20032;-72
2022/03/10 03:21:53;;;;;;;14.68;10.02;;;10.50;65.40;;;;;;5026806;28;20033;-75
2022/03/10 03:24:19;;;;;;;16.58;9.90;;;10.50;65.40;;;;;;5030372;28;20088;-74
2022/03/10 03:26:45;;;;;;;12.93;9.25;;;10.50;65.40;;;;;;5030940;28;20036;-73
2022/03/10 03:29:10;;;;;;;16.48;11.02;;;10.50;65.40;;;;;;5027728;28;20030;-75
2022/03/10 03:31:37;;;;;;;22.42;10.75;;;10.50;65.40;;;;;;5029201;28;20017;-72
2022/03/10 03:34:09;;;;;;;13.32;10.45;;;10.50;65.50;;;;;;5030936;28;20032;-77
2022/03/10 03:36:38;;;;;;;17.10;9.80;;;10.50;65.50;;;;;;5029589;28;20045;-72
2022/03/10 03:39:04;;;;;;;15.27;10.23;;;10.50;65.40;;;;;;5029307;28;20464;-72
2022/03/10 03:41:30;;;;;;;16.00;10.43;;;10.50;65.50;;;;;;5030543;28;20133;-73
2022/03/10 03:43:55;;;;;;;17.50;10.23;;;10.50;65.50;;;;;;5030668;28;20033;-73
2022/03/10 03:46:21;;;;;;;15.15;9.77;;;10.40;65.50;;;;;;5031324;28;20120;-73
2022/03/10 03:48:47;;;;;;;13.48;9.45;;;10.50;65.50;;;;;;5029114;28;20025;-74
2022/03/10 03:51:12;;;;;;;16.10;10.02;;;10.50;65.50;;;;;;5030574;28;20026;-74
2022/03/10 03:53:38;;;;;;;16.88;10.35;;;10.50;65.50;;;;;;5029198;28;20033;-74
2022/03/10 03:56:04;;;;;;;16.50;10.20;;;10.40;65.60;;;;;;5030433;28;20107;-73
2022/03/10 03:58:29;;;;;;;13.88;9.65;;;10.40;65.50;;;;;;5030984;28;20045;-72
2022/03/10 04:00:55;;;;;;;16.05;10.38;;;10.50;65.60;;;;;;5030133;28;20033;-75
2022/03/10 04:03:20;;;;;;;15.68;9.90;;;10.50;65.60;;;;;;5030573;28;20296;-74
2022/03/10 04:05:46;;;;;;;15.38;10.43;;;10.50;65.50;;;;;;5029151;28;20536;-74
2022/03/10 04:08:12;;;;;;;14.98;10.18;;;10.50;65.60;;;;;;5030302;28;20037;-73
2022/03/10 04:10:38;;;;;;;14.15;9.48;;;10.50;65.60;;;;;;5029119;28;20504;-75
2022/03/10 04:13:05;;;;;;;17.88;10.60;;;10.50;65.60;;;;;;5028548;28;20119;-75
2022/03/10 04:15:32;;;;;;;15.30;9.93;;;10.50;65.50;;;;;;5009302;28;20044;-73
2022/03/10 04:17:58;;;;;;;13.77;10.38;;;10.40;65.50;;;;;;5028365;28;20030;-74
2022/03/10 04:20:23;;;;;;;15.93;10.13;;;10.40;65.50;;;;;;5028554;28;20196;-73
2022/03/10 04:22:49;;;;;;;13.70;10.50;;;10.40;65.50;;;;;;5028958;28;20501;-74
2022/03/10 04:25:15;;;;;;;13.70;10.13;;;10.40;65.50;;;;;;5028907;28;20411;-73
2022/03/10 04:27:40;;;;;;;13.82;10.60;;;10.40;65.50;;;;;;5028732;28;20021;-74
2022/03/10 04:30:07;;;;;;;14.45;9.70;;;10.40;65.50;;;;;;5029779;28;20027;-73
2022/03/10 04:32:43;;;;;;;14.57;10.48;;;10.40;66.00;;;;;;5029630;28;20021;-73
2022/03/10 04:35:10;;;;;;;15.38;11.25;;;10.40;65.50;;;;;;5028017;28;20037;-77
2022/03/10 04:37:36;;;;;;;15.02;11.38;;;10.40;65.40;;;;;;5029126;28;20096;-73
2022/03/10 04:40:06;;;;;;;15.82;11.85;;;10.50;65.50;;;;;;5029361;28;20112;-73
2022/03/10 04:42:32;;;;;;;17.02;12.52;;;10.40;65.50;;;;;;5029095;28;20038;-72
2022/03/10 04:44:57;;;;;;;16.23;12.35;;;10.40;65.50;;;;;;5028358;28;20022;-73
2022/03/10 04:47:23;;;;;;;16.23;12.02;;;10.40;65.40;;;;;;5028057;28;20091;-73
2022/03/10 04:49:48;;;;;;;15.95;11.52;;;10.40;65.40;;;;;;5029432;28;20014;-73
2022/03/10 04:52:14;;;;;;;15.52;11.57;;;10.40;65.40;;;;;;5029415;28;20025;-72
2022/03/10 04:54:39;;;;;;;15.35;12.25;;;10.40;65.40;;;;;;5028121;28;20484;-73
2022/03/10 04:57:05;;;;;;;17.15;11.65;;;10.40;65.40;;;;;;5028707;28;20116;-75
2022/03/10 04:59:32;;;;;;;17.10;11.95;;;10.40;65.40;;;;;;5027828;28;20067;-73
2022/03/10 05:01:57;;;;;;;16.27;11.68;;;10.40;65.40;;;;;;5028982;28;20083;-72
2022/03/10 05:04:23;;;;;;;15.13;11.55;;;10.40;65.40;;;;;;5029937;28;20479;-73
2022/03/10 05:06:48;;;;;;;15.88;11.73;;;10.40;65.40;;;;;;5028121;28;20049;-73
2022/03/10 05:09:14;;;;;;;14.32;11.18;;;10.40;65.40;;;;;;5029306;28;20021;-73
2022/03/10 05:11:40;;;;;;;14.13;11.25;;;10.40;65.30;;;;;;5028091;28;20545;-73
2022/03/10 05:14:05;;;;;;;14.32;11.05;;;10.40;65.30;;;;;;5029730;28;20104;-73
2022/03/10 05:16:31;;;;;;;15.35;11.50;;;10.40;65.30;;;;;;5028016;28;20033;-73
2022/03/10 05:18:56;;;;;;;14.43;11.23;;;10.40;65.20;;;;;;5029583;28;20247;-74
2022/03/10 05:21:22;;;;;;;13.57;11.00;;;10.40;65.30;;;;;;5027973;28;20064;-74
2022/03/10 05:23:47;;;;;;;15.52;11.80;;;10.40;65.30;;;;;;5029480;28;20025;-73
2022/03/10 05:26:13;;;;;;;16.80;11.57;;;10.40;65.30;;;;;;5027782;28;20033;-74
2022/03/10 05:28:39;;;;;;;14.18;11.13;;;10.40;65.30;;;;;;5045008;28;20033;-73
2022/03/10 05:31:04;;;;;;;15.02;11.18;;;10.40;65.30;;;;;;5027737;28;20022;-73
2022/03/10 05:33:30;;;;;;;14.38;10.70;;;10.40;65.30;;;;;;5028024;28;20029;-73
2022/03/10 05:35:55;;;;;;;14.20;11.40;;;10.40;65.30;;;;;;5028137;28;20017;-73
2022/03/10 05:38:21;;;;;;;15.60;11.55;;;10.40;65.90;;;;;;5025613;28;20063;-73
2022/03/10 05:40:46;;;;;;;15.50;11.30;;;10.40;65.40;;;;;;5026813;28;20037;-77
2022/03/10 05:43:12;;;;;;;14.82;10.60;;;10.40;65.40;;;;;;5033426;28;20148;-73
2022/03/10 05:45:37;;;;;;;16.75;11.38;;;10.40;65.40;;;;;;5027206;28;20029;-77
2022/03/10 05:48:03;;;;;;;16.00;11.23;;;10.40;65.40;;;;;;5028590;28;20024;-73
2022/03/10 05:50:29;;;;;;;15.45;11.23;;;10.40;65.40;;;;;;5027840;28;20026;-76
2022/03/10 05:52:55;;;;;;;14.50;11.40;;;10.40;65.40;;;;;;5026879;28;20017;-73
2022/03/10 05:55:23;;;;;;;26.98;12.80;;;10.40;65.40;;;;;;5027557;28;20509;-74
2022/03/10 05:57:48;;;;;;;49.63;13.07;;;10.40;65.40;;;;;;5028475;28;20025;-75
2022/03/10 06:00:15;;;;;;;32.67;13.23;;;10.40;65.60;;;;;;5028029;28;20040;-74
2022/03/10 06:02:40;;;;;;;30.23;11.52;;;10.40;65.50;;;;;;5028365;28;20025;-76
2022/03/10 06:05:06;;;;;;;21.30;11.48;;;10.30;65.30;;;;;;5026934;28;20033;-74
2022/03/10 06:07:32;;;;;;;16.58;10.85;;;10.40;65.80;;;;;;5028054;28;20029;-76
2022/03/10 06:09:58;;;;;;;16.77;10.65;;;10.40;65.30;;;;;;5027720;28;20180;-74
2022/03/10 06:12:27;;;;;;;17.08;10.55;;;10.30;65.10;;;;;;5027777;28;20045;-72
2022/03/10 06:14:58;;;;;;;18.48;11.05;;;10.30;65.10;;;;;;5026443;28;20025;-73
2022/03/10 06:17:24;;;;;;;23.55;10.93;;;10.30;65.00;;;;;;5025937;28;20044;-75
2022/03/10 06:19:50;;;;;;;18.20;11.05;;;10.30;65.00;;;;;;5026136;28;20037;-74
2022/03/10 06:22:21;;;;;;;21.08;11.65;;;10.40;65.10;;;;;;5026546;28;20064;-73
2022/03/10 06:24:47;;;;;;;21.33;12.43;;;10.40;64.90;;;;;;5027571;28;20022;-73
2022/03/10 06:27:18;;;;;;;20.40;13.05;;;10.40;64.70;;;;;;5027790;28;20081;-74
2022/03/10 06:29:44;;;;;;;23.13;12.85;;;10.40;64.60;;;;;;5027613;28;20381;-75
2022/03/10 06:32:12;;;;;;;24.27;11.82;;;10.40;64.50;;;;;;5027318;28;20803;-72
2022/03/10 06:34:38;;;;;;;24.65;12.48;;;10.40;64.40;;;;;;5026197;28;20726;-76
2022/03/10 06:37:04;;;;;;;19.33;11.73;;;10.50;64.50;;;;;;5027520;28;20033;-75
2022/03/10 06:39:30;;;;;;;17.13;11.40;;;10.50;64.50;;;;;;5026800;28;20040;-74
2022/03/10 06:41:55;;;;;;;17.52;11.85;;;10.50;64.60;;;;;;5027174;28;20026;-74
2022/03/10 06:44:21;;;;;;;17.48;12.40;;;10.50;64.60;;;;;;5025968;28;20494;-76
2022/03/10 06:46:47;;;;;;;18.45;12.20;;;10.50;64.60;;;;;;5025742;28;20072;-74
2022/03/10 06:49:12;;;;;;;17.52;12.07;;;10.50;64.60;;;;;;5026918;28;20018;-74
2022/03/10 06:51:38;;;;;;;17.75;13.18;;;10.50;64.60;;;;;;5026899;28;20033;-72
2022/03/10 06:54:04;;;;;;;16.48;12.25;;;10.60;64.60;;;;;;5024735;28;20025;-76
2022/03/10 06:56:30;;;;;;;17.20;12.50;;;10.60;64.80;;;;;;5025463;28;20641;-75
2022/03/10 06:58:56;;;;;;;16.75;12.82;;;10.60;64.80;;;;;;5026743;28;20033;-74
2022/03/10 07:01:21;;;;;;;18.42;12.90;;;10.70;64.80;;;;;;5025399;28;20670;-77
2022/03/10 07:03:47;;;;;;;17.52;13.38;;;10.70;64.80;;;;;;5026612;28;20033;-74
2022/03/10 07:06:13;;;;;;;16.55;12.77;;;10.70;64.80;;;;;;5025186;28;20116;-74
2022/03/10 07:08:38;;;;;;;17.50;12.23;;;10.70;64.80;;;;;;5024931;28;20037;-74
2022/03/10 07:11:04;;;;;;;18.17;13.02;;;10.70;64.70;;;;;;5025473;28;20411;-74
2022/03/10 07:13:30;;;;;;;20.67;13.70;;;10.70;64.80;;;;;;5025449;28;20021;-75
2022/03/10 07:15:55;;;;;;;19.75;14.18;;;10.80;64.80;;;;;;5022782;28;20068;-73
2022/03/10 07:18:21;;;;;;;20.45;14.07;;;10.80;64.80;;;;;;5025134;28;20030;-74
2022/03/10 07:20:47;;;;;;;20.70;14.65;;;10.80;64.90;;;;;;5027000;28;20026;-74
2022/03/10 07:23:12;;;;;;;20.73;15.32;;;10.80;64.90;;;;;;5026586;28;20025;-74
2022/03/10 07:25:38;;;;;;;23.15;15.50;;;10.90;65.10;;;;;;5025417;28;20039;-74
2022/03/10 07:28:04;;;;;;;24.17;15.18;;;10.90;65.10;;;;;;5025250;28;20036;-74
2022/03/10 07:30:30;;;;;;;21.65;14.52;;;10.90;65.20;;;;;;5025178;28;20033;-74
2022/03/10 07:32:55;;;;;;;19.70;15.13;;;11.00;65.30;;;;;;5026477;28;20049;-74
2022/03/10 07:35:21;;;;;;;21.85;15.43;;;10.90;65.40;;;;;;5025890;28;20025;-75
2022/03/10 07:37:48;;;;;;;19.67;14.77;;;11.00;65.50;;;;;;5025439;28;20021;-73
2022/03/10 07:40:13;;;;;;;23.25;15.32;;;11.00;65.50;;;;;;5026721;28;20025;-74
2022/03/10 07:42:39;;;;;;;22.25;14.50;;;11.00;65.50;;;;;;5025394;28;20034;-74
2022/03/10 07:45:05;;;;;;;19.00;14.15;;;11.00;65.50;;;;;;5025616;28;20021;-75
2022/03/10 07:47:30;;;;;;;21.33;15.15;;;11.10;65.50;;;;;;5025279;28;20089;-74
2022/03/10 07:49:57;;;;;;;21.10;14.55;;;11.10;65.60;;;;;;5026513;28;20136;-73
2022/03/10 07:52:23;;;;;;;19.05;14.15;;;11.10;65.60;;;;;;5026387;28;20041;-75
2022/03/10 07:54:48;;;;;;;19.60;14.95;;;11.10;65.70;;;;;;5025380;28;20740;-74
2022/03/10 07:57:14;;;;;;;22.10;14.98;;;11.20;65.80;;;;;;5026714;28;20513;-75
2022/03/10 07:59:40;;;;;;;18.80;14.80;;;11.20;65.70;;;;;;5025207;28;20036;-74
2022/03/10 08:02:05;;;;;;;18.60;14.07;;;11.20;65.90;;;;;;5025068;28;20055;-74
2022/03/10 08:04:31;;;;;;;20.70;14.77;;;11.20;65.90;;;;;;5025289;28;20050;-74
2022/03/10 08:06:56;;;;;;;19.45;14.43;;;11.30;66.00;;;;;;5024969;28;20119;-74
2022/03/10 08:09:22;;;;;;;18.08;13.48;;;11.30;66.00;;;;;;5026495;28;20056;-74
2022/03/10 08:11:47;;;;;;;20.27;13.95;;;11.30;65.90;;;;;;5030081;28;20048;-74
2022/03/10 08:14:13;;;;;;;19.02;14.25;;;11.30;65.80;;;;;;5028831;28;20482;-74
2022/03/10 08:16:40;;;;;;;18.92;14.00;;;11.40;65.90;;;;;;5028448;28;20090;-74
2022/03/10 08:19:08;;;;;;;17.75;14.00;;;11.40;66.00;;;;;;5029998;28;20025;-73
2022/03/10 08:21:34;;;;;;;18.85;13.90;;;11.40;66.00;;;;;;5029917;28;20056;-74
2022/03/10 08:24:00;;;;;;;18.15;13.50;;;11.40;65.90;;;;;;5028615;28;20022;-74
2022/03/10 08:26:26;;;;;;;17.88;13.43;;;11.40;66.00;;;;;;5030309;28;20038;-74
2022/03/10 08:28:52;;;;;;;17.17;12.70;;;11.50;66.10;;;;;;5028493;28;20491;-74
2022/03/10 08:31:19;;;;;;;17.88;13.63;;;11.50;66.00;;;;;;5029616;28;20124;-76
2022/03/10 08:33:45;;;;;;;16.98;12.75;;;11.50;66.00;;;;;;5028499;28;20513;-74
2022/03/10 08:36:11;;;;;;;17.33;12.63;;;11.50;65.90;;;;;;5028359;28;20052;-73
2022/03/10 08:38:37;;;;;;;17.27;13.13;;;11.60;65.90;;;;;;5029847;28;20021;-75
2022/03/10 08:41:03;;;;;;;15.43;12.18;;;11.60;65.80;;;;;;5028122;28;20061;-74
2022/03/10 08:43:30;;;;;;;14.98;12.13;;;11.60;65.80;;;;;;5028540;28;20033;-74
2022/03/10 08:45:56;;;;;;;15.43;12.57;;;11.60;65.70;;;;;;5029235;28;20112;-75
2022/03/10 08:48:21;;;;;;;14.77;11.85;;;11.60;65.70;;;;;;5029576;28;20105;-75
2022/03/10 08:50:47;;;;;;;15.00;11.65;;;11.70;65.80;;;;;;5029069;28;20063;-74
2022/03/10 08:53:13;;;;;;;16.23;12.00;;;11.70;65.80;;;;;;5028269;28;20036;-75
2022/03/10 08:55:38;;;;;;;15.32;11.82;;;11.70;65.80;;;;;;5029215;28;20033;-74
2022/03/10 08:58:04;;;;;;;16.00;11.68;;;11.70;65.70;;;;;;5029504;28;20384;-75
2022/03/10 09:00:30;;;;;;;17.10;12.43;;;11.70;65.70;;;;;;5028746;28;20032;-75
2022/03/10 09:02:56;;;;;;;16.30;12.07;;;11.80;65.70;;;;;;5029322;28;20124;-75
2022/03/10 09:05:22;;;;;;;15.43;11.55;;;11.70;65.60;;;;;;5029007;28;20080;-75
2022/03/10 09:07:48;;;;;;;15.15;11.50;;;11.80;65.60;;;;;;5029121;28;20030;-75
2022/03/10 09:10:14;;;;;;;14.73;11.35;;;11.80;66.10;;;;;;5028615;28;20026;-73
2022/03/10 09:12:39;;;;;;;14.32;11.05;;;11.80;65.50;;;;;;5026700;28;20028;-74
2022/03/10 09:15:06;;;;;;;16.33;11.40;;;11.80;65.40;;;;;;5028633;28;20140;-74
2022/03/10 09:17:31;;;;;;;14.57;11.55;;;11.80;65.40;;;;;;5028857;28;20292;-74
2022/03/10 09:19:57;;;;;;;14.63;10.93;;;11.80;65.40;;;;;;5026849;28;20441;-75
2022/03/10 09:22:25;;;;;;;14.73;11.57;;;11.80;65.40;;;;;;5028458;28;20451;-74
2022/03/10 09:24:52;;;;;;;16.08;11.43;;;11.80;65.40;;;;;;5027596;28;20064;-75
2022/03/10 09:27:18;;;;;;;15.52;11.20;;;11.80;65.40;;;;;;5027416;28;20056;-75
2022/03/10 09:29:43;;;;;;;13.43;10.40;;;11.90;65.50;;;;;;5028690;28;20095;-75
2022/03/10 09:32:09;;;;;;;14.57;11.02;;;11.80;65.40;;;;;;5028721;28;20025;-75
2022/03/10 09:34:35;;;;;;;14.90;11.35;;;11.90;65.50;;;;;;5027372;28;20033;-76
2022/03/10 09:37:00;;;;;;;15.00;10.82;;;11.90;65.40;;;;;;5027432;28;20491;-74
2022/03/10 09:39:26;;;;;;;13.57;10.38;;;11.90;65.40;;;;;;5027132;28;20072;-74
2022/03/10 09:41:55;;;;;;;14.25;10.48;;;11.90;65.40;;;;;;5028152;28;20037;-75
2022/03/10 09:44:21;;;;;;;14.93;11.30;;;11.90;65.30;;;;;;5028210;28;20033;-74
2022/03/10 09:46:50;;;;;;;14.20;10.40;;;11.90;65.30;;;;;;5027027;28;20044;-75
2022/03/10 09:49:19;;;;;;;12.95;10.05;;;12.00;65.30;;;;;;5028308;28;20387;-74
2022/03/10 09:51:48;;;;;;;14.38;11.48;;;12.00;65.20;;;;;;5026848;28;20057;-74
2022/03/10 09:54:13;;;;;;;14.15;10.95;;;11.90;65.20;;;;;;5027977;28;20046;-75
2022/03/10 09:56:41;;;;;;;15.10;11.07;;;12.00;65.20;;;;;;5026964;28;20036;-75
2022/03/10 09:59:08;;;;;;;14.02;11.02;;;12.00;65.20;;;;;;5029390;28;20030;-73
2022/03/10 10:01:33;;;;;;;13.43;10.88;;;12.00;65.10;;;;;;5025559;28;20829;-74
2022/03/10 10:03:59;;;;;;;14.20;10.35;;;12.00;65.10;;;;;;5025852;28;20065;-74
2022/03/10 10:06:24;;;;;;;15.32;9.95;;;12.00;65.10;;;;;;5025676;28;20029;-73
2022/03/10 10:08:55;;;;;;;13.07;10.23;;;12.10;65.10;;;;;;5027227;28;20076;-75
2022/03/10 10:11:30;;;;;;;13.15;10.32;;;12.10;65.00;;;;;;5026610;28;20056;-74
2022/03/10 10:13:56;;;;;;;13.75;10.05;;;12.10;65.00;;;;;;5025623;28;20029;-74
2022/03/10 10:16:22;;;;;;;14.00;10.45;;;12.10;64.90;;;;;;5025668;28;20025;-74
2022/03/10 10:18:57;;;;;;;14.35;10.27;;;12.10;64.80;;;;;;5025364;28;20121;-73
2022/03/10 10:21:24;;;;;;;12.55;9.63;;;12.20;64.80;;;;;;5025075;28;20029;-73
2022/03/10 10:23:52;;;;;;;14.10;10.43;;;12.20;64.70;;;;;;5026403;28;20632;-75
2022/03/10 10:26:20;;;;;;;13.50;10.50;;;12.20;64.70;;;;;;5025104;28;20076;-73
2022/03/10 10:28:47;;;;;;;12.88;9.40;;;12.20;64.60;;;;;;5026373;28;20021;-74
2022/03/10 10:31:16;;;;;;;12.65;9.90;;;12.30;64.60;;;;;;5018536;28;20031;-75
2022/03/10 10:33:54;;;;;;;13.18;9.77;;;12.20;64.50;;;;;;5024689;28;20036;-74
2022/03/10 10:36:25;;;;;;;13.18;10.00;;;12.30;64.60;;;;;;5024025;28;20149;-73
2022/03/10 10:38:53;;;;;;;15.32;10.40;;;12.20;64.50;;;;;;5025909;28;20061;-74
2022/03/10 10:41:29;;;;;;;12.85;9.60;;;12.30;64.60;;;;;;5024315;28;20033;-74
2022/03/10 10:44:00;;;;;;;13.55;9.75;;;12.20;64.50;;;;;;5025896;28;20037;-73
2022/03/10 10:46:33;;;;;;;12.70;9.77;;;12.30;64.60;;;;;;5024708;28;20053;-74
2022/03/10 10:49:19;;;;;;;11.52;8.95;;;12.30;64.60;;;;;;5025786;28;20025;-75
2022/03/10 10:51:53;;;;;;;13.27;9.80;;;12.30;64.50;;;;;;5025832;28;20036;-73
2022/03/10 10:54:24;;;;;;;12.05;9.80;;;12.30;64.50;;;;;;5024186;28;20034;-74
2022/03/10 10:56:55;;;;;;;15.63;9.50;;;12.30;64.50;;;;;;5025622;28;20104;-74
2022/03/10 10:59:34;;;;;;;21.52;9.65;;;12.30;64.50;;;;;;5024143;28;20064;-74
2022/03/10 11:02:17;;;;;;;15.15;9.25;;;12.30;64.50;;;;;;5024326;28;20494;-73
2022/03/10 11:04:46;;;;;;;18.63;9.45;;;12.30;64.50;;;;;;5024530;28;20045;-74
2022/03/10 11:07:12;;;;;;;13.43;8.75;;;12.30;64.50;;;;;;5025640;28;20052;-74
2022/03/10 11:09:40;;;;;;;14.48;9.07;;;12.30;64.50;;;;;;5025591;28;20033;-74
2022/03/10 11:12:09;;;;;;;13.10;10.15;;;12.30;64.50;;;;;;5024424;28;20022;-74
2022/03/10 11:14:34;;;;;;;13.68;9.48;;;12.30;64.50;;;;;;5041131;28;20060;-74
2022/03/10 11:17:01;;;;;;;12.75;9.85;;;12.40;64.50;;;;;;5025453;28;20104;-74
2022/03/10 11:19:37;;;;;;;12.95;9.27;;;12.40;64.50;;;;;;5025245;28;20034;-75
2022/03/10 11:22:11;;;;;;;14.50;9.82;;;12.40;64.50;;;;;;5023963;28;20060;-74
2022/03/10 11:24:58;;;;;;;12.88;9.00;;;12.40;64.50;;;;;;5024251;28;20103;-74
2022/03/10 11:27:29;;;;;;;15.32;9.32;;;12.40;64.60;;;;;;5024610;28;20029;-73
2022/03/10 11:29:57;;;;;;;13.48;9.18;;;12.40;64.50;;;;;;5023960;28;20075;-74
2022/03/10 11:32:29;;;;;;;13.32;9.20;;;12.40;64.50;;;;;;5023958;28;20026;-74
2022/03/10 11:34:58;;;;;;;13.73;9.20;;;12.40;64.50;;;;;;5024646;28;20391;-73
2022/03/10 11:37:42;;;;;;;14.40;9.40;;;12.40;64.50;;;;;;5023994;28;20037;-73
2022/03/10 11:40:13;;;;;;;12.90;8.93;;;12.40;64.50;;;;;;5025019;28;20073;-73
2022/03/10 11:42:40;;;;;;;12.38;8.43;;;12.40;64.40;;;;;;5025263;28;20061;-73
2022/03/10 11:45:16;;;;;;;14.23;9.05;;;12.40;64.40;;;;;;5026483;28;20065;-75
2022/03/10 11:47:43;;;;;;;14.63;9.23;;;12.40;64.40;;;;;;5027226;28;20025;-74
2022/03/10 11:50:20;;;;;;;13.73;8.70;;;12.50;64.50;;;;;;5029093;28;20037;-76
2022/03/10 11:52:57;;;;;;;15.43;9.02;;;12.40;64.40;;;;;;5029494;28;20421;-75
2022/03/10 11:55:51;;;;;;;12.10;8.68;;;12.40;64.40;;;;;;5028871;28;20037;-76
2022/03/10 11:58:30;;;;;;;15.63;8.77;;;12.40;64.30;;;;;;5026493;28;20045;-75
2022/03/10 12:00:59;;;;;;;14.02;8.98;;;12.50;64.40;;;;;;5021579;28;20025;-76
2022/03/10 12:03:25;;;;;;;12.65;8.90;;;12.40;64.30;;;;;;5027914;28;20030;-77
2022/03/10 12:05:58;;;;;;;13.02;8.85;;;12.50;64.30;;;;;;5028875;28;20041;-76
2022/03/10 12:08:36;;;;;;;14.18;9.40;;;12.50;64.30;;;;;;5026879;28;20021;-76
2022/03/10 12:11:12;;;;;;;13.48;9.05;;;12.50;64.30;;;;;;5026702;28;20445;-75
2022/03/10 12:13:41;;;;;;;13.02;8.85;;;12.50;64.40;;;;;;5027425;28;20040;-74
2022/03/10 12:16:07;;;;;;;13.80;8.65;;;12.50;64.40;;;;;;5027860;28;20034;-75
2022/03/10 12:18:42;;;;;;;13.00;8.35;;;12.50;64.40;;;;;;5028216;28;20036;-75
2022/03/10 12:21:27;;;;;;;11.07;8.20;;;12.50;64.40;;;;;;5033643;28;20021;-76
2022/03/10 12:24:04;;;;;;;12.10;8.60;;;12.50;64.30;;;;;;5035035;28;20069;-75
2022/03/10 12:26:38;;;;;;;12.23;8.32;;;12.50;64.30;;;;;;5033807;28;20029;-75
2022/03/10 12:29:06;;;;;;;11.75;8.18;;;12.50;64.30;;;;;;5033557;28;20021;-75
2022/03/10 12:31:35;;;;;;;12.35;8.73;;;12.50;64.30;;;;;;5033609;28;20026;-76
2022/03/10 12:34:14;;;;;;;12.95;8.07;;;12.50;64.30;;;;;;5034888;28;20025;-76
2022/03/10 12:36:50;;;;;;;13.30;8.27;;;12.50;64.40;;;;;;5033690;28;20026;-76